LTCM Airport Information

Runway Information
Airport Frequencies
Airport Navaids
Type VOR-DME Name Sinop Frequency 114000 KHZ
Type NDB Name Sinop Frequency 465 KHZ
Airport Weather Information & NOTAM
ADDS - METARS form results

(1415 UTC 24 June 2021)
Data provider http://aviationweather.gov/metar/data/
 
METAR text: LTCM 241350Z 29016KT 9999 BKN019 25/20 Q1016
Conditions at: LTCM (SINOP AIRPORT , TR) observed 1350 UTC 24 June 2021
Temperature: 25.0°C (77°F)
Dewpoint: 20.0°C (68°F) [RH = 74%]
Pressure (altimeter): 30.00 inches Hg (1016.0 mb)
Winds: from the WNW (290 degrees) at 18 MPH (16 knots; 8.2 m/s)
Visibility: 6 or more miles (10+ km)
Ceiling: 1900 feet AGL
Clouds: broken clouds at 1900 feet AGL
Weather: no significant weather observed at this time

Forecast for: LTCM (SINOP AIRPORT , TR)
Text: TAF LTCM 241340Z 2415/2424 29011KT 9999 SCT036 BKN100
Forecast period: 1500 UTC 24 June 2021 to 0000 UTC 25 June 2021
Forecast type: FROM: standard forecast or significant change
Winds: from the WNW (290 degrees) at 13 MPH (11 knots; 5.7 m/s)
Visibility: 6 or more miles (10+ km)
Ceiling: 10000 feet AGL
Clouds: scattered clouds at 3600 feet AGL
broken clouds at 10000 feet AGL
Weather: no significant weather forecast for this period